Time;durP1;ratioP1;P1;durP2;ratioP2;P2;SDS_P1;SDS_P2;PMS_P1;PMS_P2;Temp;Humidity;BMP_temperature;BMP_pressure;BME280_temperature;BME280_humidity;BME280_pressure;Samples;Min_cycle;Max_cycle;Signal;HPM_P1;HPM_P2
2023/05/31 00:01:51;;;;;;;11.00;4.30;;;;;;;;;;5010750;28;20450;-61
2023/05/31 00:04:18;;;;;;;10.80;4.37;;;;;;;;;;5012944;28;20526;-62
2023/05/31 00:06:45;;;;;;;7.30;4.00;;;;;;;;;;5030210;28;20195;-61
2023/05/31 00:09:11;;;;;;;8.73;4.07;;;;;;;;;;5031418;28;20187;-61
2023/05/31 00:11:38;;;;;;;7.80;4.17;;;;;;;;;;5030815;28;20433;-61
2023/05/31 00:14:05;;;;;;;8.77;3.93;;;;;;;;;;5030379;28;20458;-61
2023/05/31 00:16:31;;;;;;;7.70;3.70;;;;;;;;;;5030552;28;20191;-61
2023/05/31 00:19:18;;;;;;;7.50;3.97;;;;;;;;;;5030235;28;20869;-62
2023/05/31 00:21:45;;;;;;;8.10;3.60;;;;;;;;;;5030437;28;20203;-61
2023/05/31 00:24:12;;;;;;;6.47;3.80;;;;;;;;;;5030814;28;20444;-61
2023/05/31 00:26:39;;;;;;;6.43;3.80;;;;;;;;;;5033118;28;20278;-61
2023/05/31 00:29:06;;;;;;;6.50;3.63;;;;;;;;;;5049665;28;20571;-62
2023/05/31 00:31:33;;;;;;;8.23;3.40;;;;;;;;;;5032419;28;20293;-61
2023/05/31 00:34:00;;;;;;;6.57;3.97;;;;;;;;;;5032252;28;20476;-62
2023/05/31 00:36:26;;;;;;;5.47;3.40;;;;;;;;;;5050330;28;20229;-61
2023/05/31 00:38:54;;;;;;;7.27;3.60;;;;;;;;;;5050368;28;20433;-61
2023/05/31 00:41:21;;;;;;;5.87;3.50;;;;;;;;;;5035382;28;20196;-61
2023/05/31 00:43:48;;;;;;;8.13;4.17;;;;;;;;;;4992565;28;20493;-61
2023/05/31 00:46:22;;;;;;;7.27;3.77;;;;;;;;;;5010510;28;20435;-61
2023/05/31 00:49:06;;;;;;;8.43;4.00;;;;;;;;;;5010801;28;20419;-62
2023/05/31 00:51:33;;;;;;;10.00;4.33;;;;;;;;;;5010086;28;20442;-61
2023/05/31 00:54:02;;;;;;;11.67;4.23;;;;;;;;;;4992756;28;20514;-61
2023/05/31 00:56:28;;;;;;;8.10;3.90;;;;;;;;;;5008913;28;20485;-61
2023/05/31 00:58:58;;;;;;;7.20;3.43;;;;;;;;;;4992440;28;20522;-61
2023/05/31 01:01:32;;;;;;;7.30;3.70;;;;;;;;;;4992755;28;20950;-61
2023/05/31 01:04:01;;;;;;;8.43;4.00;;;;;;;;;;5010115;28;20426;-61
2023/05/31 01:06:35;;;;;;;11.33;4.07;;;;;;;;;;4976897;28;20471;-61
2023/05/31 01:09:07;;;;;;;7.07;3.93;;;;;;;;;;5010084;28;20467;-62
2023/05/31 01:11:53;;;;;;;6.83;3.53;;;;;;;;;;4993180;28;20431;-62
2023/05/31 01:14:32;;;;;;;6.53;3.60;;;;;;;;;;5009629;28;20477;-61
2023/05/31 01:17:16;;;;;;;7.17;3.70;;;;;;;;;;4977769;28;20822;-61
2023/05/31 01:19:47;;;;;;;7.57;4.00;;;;;;;;;;4992061;28;20526;-61
2023/05/31 01:22:50;;;;;;;8.47;3.87;;;;;;;;;;4978609;28;20476;-61
2023/05/31 01:25:22;;;;;;;7.77;3.70;;;;;;;;;;5024073;28;20868;-61
2023/05/31 01:27:49;;;;;;;7.23;3.97;;;;;;;;;;5024122;28;20198;-61
2023/05/31 01:30:16;;;;;;;9.60;4.20;;;;;;;;;;5048312;28;20445;-62
2023/05/31 01:32:43;;;;;;;6.20;3.87;;;;;;;;;;5031682;28;20445;-61
2023/05/31 01:35:10;;;;;;;5.07;3.67;;;;;;;;;;5031311;28;20519;-61
2023/05/31 01:37:37;;;;;;;7.70;4.10;;;;;;;;;;5031294;28;20488;-61
2023/05/31 01:40:04;;;;;;;9.23;4.00;;;;;;;;;;5049090;28;20996;-61
2023/05/31 02:18:16;;;;;;;9.00;4.00;;;;;;;;;;5009228;28;20512;-61
2023/05/31 02:20:44;;;;;;;5.93;4.07;;;;;;;;;;5009137;28;20431;-61
2023/05/31 02:23:17;;;;;;;8.10;4.00;;;;;;;;;;5022363;28;21033;-61
2023/05/31 02:25:44;;;;;;;22.93;4.73;;;;;;;;;;5028724;28;20444;-61
2023/05/31 02:28:11;;;;;;;41.87;5.37;;;;;;;;;;5026261;28;20448;-60
2023/05/31 02:30:38;;;;;;;4.30;3.70;;;;;;;;;;5043058;28;20443;-61
2023/05/31 02:33:05;;;;;;;6.70;3.80;;;;;;;;;;5006141;28;20552;-61
2023/05/31 02:35:31;;;;;;;7.07;3.60;;;;;;;;;;5032482;28;20480;-61
2023/05/31 02:37:58;;;;;;;7.27;4.00;;;;;;;;;;5032617;28;20781;-61
2023/05/31 02:40:43;;;;;;;7.23;4.00;;;;;;;;;;5028894;28;20426;-62
2023/05/31 02:43:10;;;;;;;4.73;3.33;;;;;;;;;;5032365;28;20458;-61
2023/05/31 02:45:37;;;;;;;5.97;3.90;;;;;;;;;;4993793;28;20979;-61
2023/05/31 02:48:05;;;;;;;6.20;3.80;;;;;;;;;;5017356;28;20430;-61
2023/05/31 02:50:32;;;;;;;9.00;3.70;;;;;;;;;;5009674;28;20460;-61
2023/05/31 02:53:05;;;;;;;10.57;4.53;;;;;;;;;;5011166;28;20446;-61
2023/05/31 02:55:49;;;;;;;25.13;5.60;;;;;;;;;;5007456;28;21066;-61
2023/05/31 02:58:19;;;;;;;26.00;5.73;;;;;;;;;;5031059;28;20441;-61
2023/05/31 03:01:15;;;;;;;13.33;4.43;;;;;;;;;;4923685;28;20488;-61
2023/05/31 03:03:58;;;;;;;16.53;4.63;;;;;;;;;;5010536;28;20489;-61
2023/05/31 03:06:30;;;;;;;12.17;4.60;;;;;;;;;;5014764;28;20457;-61
2023/05/31 03:09:16;;;;;;;11.73;4.17;;;;;;;;;;5013127;28;20437;-61
2023/05/31 03:11:44;;;;;;;11.03;4.60;;;;;;;;;;5001760;28;20438;-61
2023/05/31 03:14:11;;;;;;;8.60;4.17;;;;;;;;;;5002043;28;20534;-61
2023/05/31 03:16:46;;;;;;;6.53;4.37;;;;;;;;;;5006818;28;22128;-59
2023/05/31 03:19:15;;;;;;;6.03;3.97;;;;;;;;;;5009732;28;20482;-61
2023/05/31 03:21:45;;;;;;;9.07;4.20;;;;;;;;;;5025225;28;20456;-61
2023/05/31 03:24:12;;;;;;;7.53;4.27;;;;;;;;;;5025427;28;20458;-61
2023/05/31 03:26:43;;;;;;;34.47;4.97;;;;;;;;;;5015253;28;20932;-62
2023/05/31 03:29:10;;;;;;;9.00;4.47;;;;;;;;;;5031552;28;20471;-61
2023/05/31 03:31:37;;;;;;;7.70;3.97;;;;;;;;;;5034081;28;20435;-61
2023/05/31 03:34:05;;;;;;;9.27;4.50;;;;;;;;;;5011846;28;20568;-60
2023/05/31 03:36:32;;;;;;;8.20;4.07;;;;;;;;;;5028949;28;20437;-62
2023/05/31 03:39:06;;;;;;;5.30;3.67;;;;;;;;;;5003910;28;20465;-61
2023/05/31 03:41:33;;;;;;;10.33;4.67;;;;;;;;;;5027502;28;20891;-61
2023/05/31 03:44:01;;;;;;;6.47;3.80;;;;;;;;;;5028485;28;21014;-61
2023/05/31 03:46:28;;;;;;;8.40;4.00;;;;;;;;;;5008812;28;20913;-61
2023/05/31 03:48:55;;;;;;;7.37;4.17;;;;;;;;;;5028396;28;20809;-61
2023/05/31 03:51:24;;;;;;;12.00;4.77;;;;;;;;;;5020954;28;20447;-60
2023/05/31 03:53:52;;;;;;;12.67;4.93;;;;;;;;;;5006306;28;20679;-61
2023/05/31 03:56:19;;;;;;;14.83;5.43;;;;;;;;;;5021111;28;20482;-61
2023/05/31 03:58:46;;;;;;;15.60;7.23;;;;;;;;;;5009933;28;20976;-61
2023/05/31 04:01:15;;;;;;;10.17;5.73;;;;;;;;;;5009401;28;20486;-60
2023/05/31 04:03:42;;;;;;;11.10;5.60;;;;;;;;;;5006733;28;20643;-62
2023/05/31 04:06:10;;;;;;;13.90;5.80;;;;;;;;;;5028381;28;20517;-63
2023/05/31 04:08:37;;;;;;;11.57;5.37;;;;;;;;;;5007143;28;20603;-63
2023/05/31 04:11:05;;;;;;;17.03;6.53;;;;;;;;;;5027458;28;20286;-62
2023/05/31 04:13:32;;;;;;;14.90;5.40;;;;;;;;;;5027296;28;20183;-62
2023/05/31 04:15:59;;;;;;;12.00;5.67;;;;;;;;;;5028339;28;20318;-61
2023/05/31 04:18:26;;;;;;;12.73;5.57;;;;;;;;;;5028584;28;20339;-61
2023/05/31 04:20:53;;;;;;;13.23;6.00;;;;;;;;;;5027679;28;20187;-61
2023/05/31 04:23:21;;;;;;;12.20;5.37;;;;;;;;;;5019037;28;20227;-62
2023/05/31 04:25:48;;;;;;;10.57;5.00;;;;;;;;;;5009463;28;20389;-62
2023/05/31 04:28:18;;;;;;;14.73;5.47;;;;;;;;;;5024506;28;20191;-62
2023/05/31 04:30:46;;;;;;;11.47;5.40;;;;;;;;;;5018331;28;20198;-62
2023/05/31 04:33:13;;;;;;;8.80;5.60;;;;;;;;;;5048484;28;20180;-62
2023/05/31 04:35:40;;;;;;;10.30;5.00;;;;;;;;;;5022616;28;20254;-62
2023/05/31 04:38:08;;;;;;;10.00;4.93;;;;;;;;;;5028178;28;20203;-62
2023/05/31 04:40:34;;;;;;;12.03;5.47;;;;;;;;;;5007449;28;20246;-62
2023/05/31 04:43:02;;;;;;;12.13;5.10;;;;;;;;;;5026252;28;20289;-61
2023/05/31 04:45:32;;;;;;;10.57;4.97;;;;;;;;;;5006245;28;20191;-62
2023/05/31 04:48:16;;;;;;;9.53;4.70;;;;;;;;;;5028928;28;20186;-61
2023/05/31 04:50:43;;;;;;;8.67;4.27;;;;;;;;;;5010787;28;20210;-61
2023/05/31 04:53:10;;;;;;;11.37;4.17;;;;;;;;;;5028424;28;20199;-61
2023/05/31 04:55:37;;;;;;;8.67;3.93;;;;;;;;;;5009757;28;20254;-62
2023/05/31 04:58:08;;;;;;;8.27;4.20;;;;;;;;;;5010882;28;20213;-61
2023/05/31 05:00:36;;;;;;;8.10;3.67;;;;;;;;;;5009171;28;20249;-61
2023/05/31 05:03:18;;;;;;;9.13;3.33;;;;;;;;;;5010467;28;20726;-61
2023/05/31 05:05:47;;;;;;;6.80;3.20;;;;;;;;;;5021291;28;20230;-61
2023/05/31 05:08:14;;;;;;;9.60;3.67;;;;;;;;;;5010910;28;20663;-62
2023/05/31 05:10:41;;;;;;;7.67;3.20;;;;;;;;;;5009550;28;20198;-61
2023/05/31 05:13:26;;;;;;;10.60;2.83;;;;;;;;;;5009633;28;20175;-62
2023/05/31 05:15:53;;;;;;;10.47;2.87;;;;;;;;;;4996503;28;20634;-62
2023/05/31 05:18:23;;;;;;;7.83;3.07;;;;;;;;;;5007601;28;20230;-62
2023/05/31 05:20:49;;;;;;;6.83;2.67;;;;;;;;;;5024454;28;20241;-62
2023/05/31 05:23:24;;;;;;;6.57;2.50;;;;;;;;;;5004879;28;20208;-62
2023/05/31 05:25:51;;;;;;;7.20;2.57;;;;;;;;;;5010695;28;20223;-62
2023/05/31 05:28:18;;;;;;;4.87;1.90;;;;;;;;;;5011782;28;20207;-61
2023/05/31 05:30:45;;;;;;;6.60;2.13;;;;;;;;;;5004186;28;20697;-62
2023/05/31 05:33:12;;;;;;;4.10;1.40;;;;;;;;;;5011278;28;20180;-61
2023/05/31 05:35:40;;;;;;;6.47;1.30;;;;;;;;;;5010504;28;20317;-63
2023/05/31 05:38:07;;;;;;;6.93;1.37;;;;;;;;;;5024097;28;20196;-61
2023/05/31 05:40:34;;;;;;;4.47;1.47;;;;;;;;;;5022080;28;20207;-62
2023/05/31 05:43:00;;;;;;;3.57;1.30;;;;;;;;;;5004325;28;20184;-62
2023/05/31 05:45:33;;;;;;;6.07;1.30;;;;;;;;;;5012040;28;20195;-64
2023/05/31 05:47:59;;;;;;;6.63;1.70;;;;;;;;;;5009190;28;20210;-63
2023/05/31 05:50:26;;;;;;;4.33;0.97;;;;;;;;;;5011866;28;20287;-62
2023/05/31 05:52:53;;;;;;;4.00;1.20;;;;;;;;;;5003973;28;20195;-62
2023/05/31 05:55:20;;;;;;;2.90;1.10;;;;;;;;;;5026769;28;20211;-61
2023/05/31 05:57:47;;;;;;;3.77;1.30;;;;;;;;;;5022215;28;20293;-62
2023/05/31 06:00:31;;;;;;;4.57;1.20;;;;;;;;;;5010465;28;20204;-63
2023/05/31 06:02:59;;;;;;;2.90;1.07;;;;;;;;;;5010661;28;20196;-62
2023/05/31 06:05:28;;;;;;;8.73;1.10;;;;;;;;;;5013283;28;20233;-63
2023/05/31 06:07:55;;;;;;;4.53;1.10;;;;;;;;;;5013290;28;20203;-63
2023/05/31 06:10:23;;;;;;;1.93;0.80;;;;;;;;;;5011977;28;20195;-63
2023/05/31 06:12:50;;;;;;;6.40;1.00;;;;;;;;;;5014211;28;20191;-62
2023/05/31 06:15:21;;;;;;;3.10;1.33;;;;;;;;;;5020421;28;20219;-62
2023/05/31 06:17:48;;;;;;;5.73;1.83;;;;;;;;;;5009641;28;20266;-63
2023/05/31 06:20:15;;;;;;;3.77;1.00;;;;;;;;;;5030116;28;20639;-65
2023/05/31 06:22:42;;;;;;;1.60;1.10;;;;;;;;;;5016066;28;20651;-62
2023/05/31 06:25:09;;;;;;;3.93;1.20;;;;;;;;;;4994749;28;20291;-62
2023/05/31 06:27:36;;;;;;;15.50;2.07;;;;;;;;;;5011320;28;21300;-62
2023/05/31 06:30:03;;;;;;;3.10;0.77;;;;;;;;;;5014381;28;20282;-62
2023/05/31 06:32:33;;;;;;;5.10;1.40;;;;;;;;;;5013455;28;20196;-62
2023/05/31 06:35:00;;;;;;;2.70;1.03;;;;;;;;;;5014170;28;20229;-62
2023/05/31 06:37:27;;;;;;;3.03;0.97;;;;;;;;;;5013935;28;20195;-62
2023/05/31 06:40:11;;;;;;;7.47;1.17;;;;;;;;;;5031515;28;20156;-62
2023/05/31 06:42:38;;;;;;;3.20;0.97;;;;;;;;;;5013719;28;20249;-62
2023/05/31 06:45:49;;;;;;;5.13;1.10;;;;;;;;;;5019460;28;20264;-61
2023/05/31 06:48:16;;;;;;;7.63;1.30;;;;;;;;;;5031813;28;20199;-62
2023/05/31 06:51:22;;;;;;;10.23;1.50;;;;;;;;;;5031439;28;20198;-62
2023/05/31 06:54:07;;;;;;;3.93;1.00;;;;;;;;;;5017226;28;20183;-62
2023/05/31 06:56:36;;;;;;;5.57;1.10;;;;;;;;;;5029946;28;20222;-62
2023/05/31 06:59:02;;;;;;;3.93;1.13;;;;;;;;;;5013624;28;20199;-62
2023/05/31 07:01:29;;;;;;;2.87;1.03;;;;;;;;;;5013499;28;20191;-64
2023/05/31 07:03:57;;;;;;;2.27;1.07;;;;;;;;;;5013631;28;20249;-62
2023/05/31 07:06:24;;;;;;;3.40;1.10;;;;;;;;;;5012967;28;20602;-62
2023/05/31 07:08:51;;;;;;;3.60;1.00;;;;;;;;;;5030079;28;20191;-62
2023/05/31 07:11:48;;;;;;;2.67;1.23;;;;;;;;;;5021705;28;20206;-62
2023/05/31 07:14:14;;;;;;;5.07;1.10;;;;;;;;;;5013315;28;20203;-62
2023/05/31 07:16:41;;;;;;;2.80;1.00;;;;;;;;;;5029468;28;20261;-62
2023/05/31 07:19:08;;;;;;;2.33;1.00;;;;;;;;;;5012904;28;20235;-59
2023/05/31 07:21:37;;;;;;;4.23;0.93;;;;;;;;;;4996561;28;20766;-62
2023/05/31 07:24:21;;;;;;;3.00;1.07;;;;;;;;;;5031170;28;20346;-60
2023/05/31 07:26:48;;;;;;;2.40;1.00;;;;;;;;;;5034618;28;20191;-60
2023/05/31 07:29:15;;;;;;;6.03;1.00;;;;;;;;;;5050474;28;20186;-61
2023/05/31 07:31:41;;;;;;;2.20;1.10;;;;;;;;;;5050433;28;20179;-61
2023/05/31 07:34:09;;;;;;;2.53;0.93;;;;;;;;;;5050490;28;20199;-61
2023/05/31 07:36:53;;;;;;;2.60;1.07;;;;;;;;;;5047272;28;20234;-62
2023/05/31 07:39:23;;;;;;;3.40;1.10;;;;;;;;;;5013100;28;20191;-61
2023/05/31 07:41:50;;;;;;;2.33;1.20;;;;;;;;;;5030387;28;20196;-61
2023/05/31 07:44:18;;;;;;;3.77;1.10;;;;;;;;;;5030620;28;20195;-62
2023/05/31 07:46:44;;;;;;;3.80;1.10;;;;;;;;;;5030356;28;20638;-61
2023/05/31 07:49:11;;;;;;;5.10;1.30;;;;;;;;;;5030693;28;20253;-61
2023/05/31 07:51:38;;;;;;;1.77;0.90;;;;;;;;;;5030536;28;20194;-62
2023/05/31 07:54:05;;;;;;;4.37;1.17;;;;;;;;;;5030510;28;20186;-61
2023/05/31 07:56:31;;;;;;;4.40;1.20;;;;;;;;;;5029477;28;20218;-61
2023/05/31 07:58:58;;;;;;;4.00;1.20;;;;;;;;;;5029819;28;20302;-63
2023/05/31 08:01:25;;;;;;;3.63;1.40;;;;;;;;;;5030347;28;20754;-61
2023/05/31 08:03:53;;;;;;;3.37;1.57;;;;;;;;;;5030062;28;20202;-61
2023/05/31 08:06:20;;;;;;;2.20;0.90;;;;;;;;;;5030495;28;20203;-61
2023/05/31 08:08:47;;;;;;;3.10;1.30;;;;;;;;;;5030056;28;20234;-61
2023/05/31 08:11:14;;;;;;;2.90;1.17;;;;;;;;;;5023990;28;20601;-62
2023/05/31 08:13:40;;;;;;;4.30;1.90;;;;;;;;;;5009900;28;20563;-62
2023/05/31 08:16:07;;;;;;;3.50;1.20;;;;;;;;;;5010282;28;20642;-62
2023/05/31 08:18:34;;;;;;;4.13;1.40;;;;;;;;;;5009887;28;20232;-61
2023/05/31 08:21:01;;;;;;;4.67;1.10;;;;;;;;;;5010252;28;20216;-62
2023/05/31 08:23:28;;;;;;;3.63;1.23;;;;;;;;;;5009713;28;20686;-62
2023/05/31 08:25:55;;;;;;;7.00;1.50;;;;;;;;;;5016826;28;20238;-62
2023/05/31 08:28:22;;;;;;;2.80;1.50;;;;;;;;;;5045860;28;20206;-62
2023/05/31 08:30:49;;;;;;;1.70;1.20;;;;;;;;;;5049592;28;20225;-62
2023/05/31 08:33:34;;;;;;;4.90;1.20;;;;;;;;;;5049649;28;20174;-62
2023/05/31 08:36:03;;;;;;;2.47;1.00;;;;;;;;;;5049713;28;20686;-62
2023/05/31 08:38:30;;;;;;;2.30;1.20;;;;;;;;;;5049229;28;20260;-62
2023/05/31 08:40:57;;;;;;;6.83;1.27;;;;;;;;;;5047276;28;20197;-62
2023/05/31 08:43:26;;;;;;;5.20;1.50;;;;;;;;;;5029153;28;20291;-62
2023/05/31 08:46:09;;;;;;;3.40;1.20;;;;;;;;;;5014605;28;20225;-61
2023/05/31 08:48:43;;;;;;;3.40;1.17;;;;;;;;;;5011760;28;20212;-62
2023/05/31 08:51:27;;;;;;;3.60;0.90;;;;;;;;;;5014326;28;20167;-62
2023/05/31 08:53:55;;;;;;;4.10;1.30;;;;;;;;;;5029324;28;20191;-62
2023/05/31 08:56:39;;;;;;;3.03;1.00;;;;;;;;;;5013612;28;20274;-62
2023/05/31 08:59:10;;;;;;;5.63;1.23;;;;;;;;;;5028881;28;20206;-61
2023/05/31 09:01:37;;;;;;;4.97;1.13;;;;;;;;;;5029000;28;20270;-62
2023/05/31 09:04:05;;;;;;;2.17;1.30;;;;;;;;;;5029039;28;20659;-62
2023/05/31 09:06:33;;;;;;;2.77;1.20;;;;;;;;;;5012082;28;20274;-61
2023/05/31 09:09:18;;;;;;;3.23;1.00;;;;;;;;;;5029123;28;20164;-61
2023/05/31 09:11:45;;;;;;;5.30;1.30;;;;;;;;;;5028952;28;20199;-62
2023/05/31 09:14:12;;;;;;;2.47;1.23;;;;;;;;;;5028813;28;20188;-62
2023/05/31 09:16:39;;;;;;;5.53;1.40;;;;;;;;;;5028876;28;20287;-62
2023/05/31 09:19:06;;;;;;;3.77;1.30;;;;;;;;;;5011426;28;20305;-61
2023/05/31 09:21:39;;;;;;;1.63;1.00;;;;;;;;;;5011492;28;20202;-62
2023/05/31 09:24:06;;;;;;;1.50;1.00;;;;;;;;;;5029068;28;20180;-61
2023/05/31 09:26:33;;;;;;;6.83;1.13;;;;;;;;;;5030506;28;20187;-63
2023/05/31 09:29:00;;;;;;;2.60;1.00;;;;;;;;;;5030808;28;20242;-62
2023/05/31 09:31:27;;;;;;;3.87;1.27;;;;;;;;;;5048276;28;20190;-63
2023/05/31 09:33:54;;;;;;;1.93;0.90;;;;;;;;;;5048499;28;20648;-61
2023/05/31 09:36:27;;;;;;;3.67;1.20;;;;;;;;;;5048497;28;20715;-62
2023/05/31 09:39:08;;;;;;;4.10;1.30;;;;;;;;;;5043829;28;20199;-62
2023/05/31 09:41:35;;;;;;;2.63;1.33;;;;;;;;;;5028536;28;20323;-62
2023/05/31 09:44:19;;;;;;;3.47;1.10;;;;;;;;;;5028360;28;20654;-62
2023/05/31 09:46:46;;;;;;;2.37;1.10;;;;;;;;;;5028444;28;20198;-62
2023/05/31 09:49:13;;;;;;;4.40;1.13;;;;;;;;;;5028365;28;20198;-62
2023/05/31 09:51:40;;;;;;;3.90;1.00;;;;;;;;;;5028184;28;20190;-62
2023/05/31 09:54:10;;;;;;;5.87;1.10;;;;;;;;;;5011107;28;20201;-62
2023/05/31 09:56:56;;;;;;;3.70;1.40;;;;;;;;;;5008740;28;20222;-62
2023/05/31 09:59:23;;;;;;;2.70;1.20;;;;;;;;;;5007036;28;20204;-62
2023/05/31 10:02:07;;;;;;;2.00;1.10;;;;;;;;;;5008524;28;20185;-61
2023/05/31 10:04:35;;;;;;;3.37;1.33;;;;;;;;;;5008591;28;20587;-62
2023/05/31 10:07:02;;;;;;;2.40;1.17;;;;;;;;;;5008467;28;20204;-61
2023/05/31 10:09:29;;;;;;;2.77;1.30;;;;;;;;;;5008797;28;20184;-62
2023/05/31 10:11:55;;;;;;;4.23;1.27;;;;;;;;;;5025730;28;20651;-62
2023/05/31 10:14:28;;;;;;;5.10;1.30;;;;;;;;;;5028206;28;20249;-64
2023/05/31 10:16:58;;;;;;;9.57;1.00;;;;;;;;;;5027757;28;20246;-63
2023/05/31 10:19:31;;;;;;;5.73;1.30;;;;;;;;;;5027993;28;20278;-62
2023/05/31 10:21:58;;;;;;;4.77;1.30;;;;;;;;;;5028305;28;20195;-62
2023/05/31 10:24:44;;;;;;;1.50;1.00;;;;;;;;;;5010784;28;20191;-62
2023/05/31 10:27:17;;;;;;;2.73;1.20;;;;;;;;;;5018042;28;20246;-62
2023/05/31 10:30:04;;;;;;;2.40;1.20;;;;;;;;;;5008710;28;20250;-62
2023/05/31 10:32:40;;;;;;;2.30;1.20;;;;;;;;;;5008401;28;20191;-63
2023/05/31 10:35:07;;;;;;;1.93;1.20;;;;;;;;;;4975059;28;20265;-61
2023/05/31 10:37:34;;;;;;;2.50;1.20;;;;;;;;;;4990796;28;20752;-62
2023/05/31 10:40:09;;;;;;;2.43;1.00;;;;;;;;;;4990794;28;20215;-62
2023/05/31 10:42:56;;;;;;;3.43;1.10;;;;;;;;;;5008418;28;20231;-62
2023/05/31 10:45:49;;;;;;;3.50;1.33;;;;;;;;;;5016170;28;20217;-62
2023/05/31 10:48:34;;;;;;;3.27;1.20;;;;;;;;;;4988445;28;20229;-61
2023/05/31 10:51:01;;;;;;;3.00;1.23;;;;;;;;;;5030614;28;20202;-62
2023/05/31 10:53:30;;;;;;;5.53;1.37;;;;;;;;;;5031595;28;20279;-62
2023/05/31 10:56:03;;;;;;;2.40;1.20;;;;;;;;;;5031331;28;20226;-62
2023/05/31 10:58:31;;;;;;;3.30;1.20;;;;;;;;;;5031177;28;20274;-62
2023/05/31 11:01:02;;;;;;;2.13;1.30;;;;;;;;;;5013233;28;20204;-62
2023/05/31 11:03:31;;;;;;;4.07;1.30;;;;;;;;;;5031686;28;20196;-62
2023/05/31 11:06:19;;;;;;;2.43;1.03;;;;;;;;;;5031968;28;20188;-62
2023/05/31 11:08:56;;;;;;;3.07;1.20;;;;;;;;;;5031253;28;20191;-62
2023/05/31 11:11:32;;;;;;;4.27;1.13;;;;;;;;;;5029773;28;20558;-63
2023/05/31 11:14:03;;;;;;;2.33;1.23;;;;;;;;;;5013320;28;20196;-62
2023/05/31 11:16:47;;;;;;;4.07;1.00;;;;;;;;;;5031075;28;20224;-62
2023/05/31 11:19:14;;;;;;;3.50;1.20;;;;;;;;;;5030601;28;20235;-62
2023/05/31 11:21:47;;;;;;;3.93;1.13;;;;;;;;;;5030883;28;20207;-62
2023/05/31 11:24:29;;;;;;;4.10;1.30;;;;;;;;;;5031237;28;20195;-62
2023/05/31 11:27:00;;;;;;;3.33;1.23;;;;;;;;;;5035980;28;20191;-62
2023/05/31 11:29:46;;;;;;;2.20;1.23;;;;;;;;;;5050428;28;20999;-62
2023/05/31 11:32:13;;;;;;;4.43;1.20;;;;;;;;;;5049929;28;20224;-63
2023/05/31 11:34:51;;;;;;;4.30;1.20;;;;;;;;;;5010842;28;20192;-62
2023/05/31 11:37:37;;;;;;;3.17;1.00;;;;;;;;;;4993264;28;20591;-62
2023/05/31 11:40:11;;;;;;;2.70;1.20;;;;;;;;;;5010614;28;20222;-63
2023/05/31 11:42:42;;;;;;;4.63;1.03;;;;;;;;;;5010751;28;20250;-62
2023/05/31 11:45:09;;;;;;;2.30;1.20;;;;;;;;;;5011115;28;20610;-62
2023/05/31 11:47:54;;;;;;;2.63;1.13;;;;;;;;;;4993515;28;20192;-62
2023/05/31 11:50:39;;;;;;;3.20;1.00;;;;;;;;;;5017576;28;20206;-63
2023/05/31 11:53:06;;;;;;;2.37;1.00;;;;;;;;;;5012567;28;20203;-62
2023/05/31 11:55:51;;;;;;;3.20;1.20;;;;;;;;;;5015360;28;20175;-62
2023/05/31 11:58:19;;;;;;;3.63;1.00;;;;;;;;;;5029592;28;20222;-63
2023/05/31 12:00:46;;;;;;;2.57;0.93;;;;;;;;;;5030373;28;20222;-62
2023/05/31 12:03:16;;;;;;;3.10;0.97;;;;;;;;;;5029177;28;20698;-62
2023/05/31 12:05:51;;;;;;;5.10;1.27;;;;;;;;;;5030027;28;20188;-62
2023/05/31 12:08:18;;;;;;;3.67;1.20;;;;;;;;;;5027152;28;20197;-64
2023/05/31 12:10:45;;;;;;;1.43;1.00;;;;;;;;;;5030652;28;20258;-61
2023/05/31 12:13:15;;;;;;;6.30;1.80;;;;;;;;;;5032597;28;20519;-63
2023/05/31 12:15:42;;;;;;;2.70;1.07;;;;;;;;;;5028803;28;20254;-62
2023/05/31 12:18:11;;;;;;;2.60;1.13;;;;;;;;;;5028877;28;20865;-63
2023/05/31 12:20:39;;;;;;;2.43;1.20;;;;;;;;;;5028715;28;20218;-63
2023/05/31 12:23:10;;;;;;;2.27;1.20;;;;;;;;;;5011761;28;20303;-64
2023/05/31 12:25:42;;;;;;;2.60;1.27;;;;;;;;;;5028701;28;20270;-63
2023/05/31 12:28:10;;;;;;;2.70;1.10;;;;;;;;;;5041782;28;20194;-63
2023/05/31 12:30:46;;;;;;;2.30;1.00;;;;;;;;;;5010790;28;20286;-65
2023/05/31 12:33:15;;;;;;;2.80;1.10;;;;;;;;;;5028873;28;20213;-63
2023/05/31 12:35:43;;;;;;;4.07;1.10;;;;;;;;;;5027370;28;20194;-63
2023/05/31 12:38:10;;;;;;;3.60;1.00;;;;;;;;;;5028199;28;20678;-63
2023/05/31 12:40:38;;;;;;;2.37;0.87;;;;;;;;;;5010814;28;20234;-62
2023/05/31 12:43:05;;;;;;;5.57;1.43;;;;;;;;;;5011298;28;20184;-63
2023/05/31 12:45:32;;;;;;;4.07;1.40;;;;;;;;;;5028622;28;20520;-62
2023/05/31 12:47:59;;;;;;;2.93;1.10;;;;;;;;;;5010061;28;20231;-62
2023/05/31 12:50:29;;;;;;;3.03;1.00;;;;;;;;;;5009955;28;20299;-61
2023/05/31 12:52:57;;;;;;;2.57;1.00;;;;;;;;;;5028063;28;20654;-64
2023/05/31 12:55:24;;;;;;;2.83;1.10;;;;;;;;;;5026752;28;20746;-64
2023/05/31 12:57:51;;;;;;;2.70;1.00;;;;;;;;;;5028269;28;20227;-63
2023/05/31 13:00:19;;;;;;;5.13;1.33;;;;;;;;;;5028812;28;20191;-63
2023/05/31 13:02:46;;;;;;;2.80;1.23;;;;;;;;;;5027466;28;20201;-63
2023/05/31 13:05:13;;;;;;;3.80;1.13;;;;;;;;;;5006765;28;20196;-62
2023/05/31 13:07:40;;;;;;;3.80;1.50;;;;;;;;;;5029023;28;20278;-63
2023/05/31 13:10:08;;;;;;;1.33;1.00;;;;;;;;;;5043144;28;20214;-62
2023/05/31 13:12:38;;;;;;;3.70;1.10;;;;;;;;;;5029068;28;20218;-62
2023/05/31 13:15:06;;;;;;;1.93;1.10;;;;;;;;;;5026038;28;20647;-63
2023/05/31 13:17:33;;;;;;;3.60;1.10;;;;;;;;;;5027526;28;20231;-63
2023/05/31 13:20:00;;;;;;;1.87;1.00;;;;;;;;;;5028919;28;20175;-63
2023/05/31 13:22:38;;;;;;;3.37;0.90;;;;;;;;;;5025004;28;20206;-63
2023/05/31 13:25:06;;;;;;;5.60;1.20;;;;;;;;;;5028867;28;20183;-62
2023/05/31 13:27:33;;;;;;;2.50;1.20;;;;;;;;;;5021209;28;20903;-62
2023/05/31 13:29:59;;;;;;;4.33;1.10;;;;;;;;;;5048974;28;20190;-63
2023/05/31 13:32:27;;;;;;;2.03;0.87;;;;;;;;;;5048328;28;21005;-64
2023/05/31 13:34:54;;;;;;;3.83;1.00;;;;;;;;;;5048716;28;20237;-63
2023/05/31 13:37:24;;;;;;;5.10;1.10;;;;;;;;;;5048255;28;20217;-62
2023/05/31 13:40:08;;;;;;;4.13;1.17;;;;;;;;;;5045087;28;20167;-63
2023/05/31 13:42:35;;;;;;;2.93;1.20;;;;;;;;;;5028430;28;20188;-62
2023/05/31 13:45:19;;;;;;;3.97;0.80;;;;;;;;;;5028942;28;20178;-63
2023/05/31 13:47:46;;;;;;;2.10;1.00;;;;;;;;;;5028591;28;20199;-63
2023/05/31 13:50:13;;;;;;;2.43;1.03;;;;;;;;;;5028497;28;20253;-64
2023/05/31 13:52:40;;;;;;;5.30;1.10;;;;;;;;;;5028690;28;20179;-62
2023/05/31 13:55:07;;;;;;;5.73;1.40;;;;;;;;;;5027882;28;21084;-63
2023/05/31 13:57:33;;;;;;;7.37;1.43;;;;;;;;;;5008686;28;20552;-62
2023/05/31 14:00:04;;;;;;;2.50;1.20;;;;;;;;;;5024741;28;20187;-63
2023/05/31 14:02:35;;;;;;;2.67;1.20;;;;;;;;;;5026916;28;20217;-62
2023/05/31 14:05:03;;;;;;;1.87;1.17;;;;;;;;;;5021664;28;20278;-62
2023/05/31 14:07:30;;;;;;;9.47;1.60;;;;;;;;;;5026489;28;20211;-62
2023/05/31 14:09:56;;;;;;;3.17;1.10;;;;;;;;;;5028105;28;20188;-63
2023/05/31 14:12:23;;;;;;;2.97;1.10;;;;;;;;;;5025873;28;20191;-62
2023/05/31 14:14:50;;;;;;;4.63;1.10;;;;;;;;;;5025443;28;20227;-64
2023/05/31 14:17:17;;;;;;;2.67;1.00;;;;;;;;;;5021689;28;20235;-63
2023/05/31 14:19:44;;;;;;;2.77;1.13;;;;;;;;;;5035777;28;20266;-63
2023/05/31 14:22:13;;;;;;;2.43;1.03;;;;;;;;;;5025616;28;20238;-63
2023/05/31 14:24:40;;;;;;;2.53;1.13;;;;;;;;;;5027962;28;20318;-64
2023/05/31 14:27:07;;;;;;;3.27;1.37;;;;;;;;;;5036773;28;20183;-63
2023/05/31 14:29:33;;;;;;;3.83;1.20;;;;;;;;;;5013662;28;20188;-63
2023/05/31 14:32:00;;;;;;;2.93;1.30;;;;;;;;;;5013951;28;20188;-62
2023/05/31 14:34:27;;;;;;;4.60;1.20;;;;;;;;;;5032810;28;20179;-63
2023/05/31 14:36:54;;;;;;;3.83;1.50;;;;;;;;;;5000461;28;20231;-63
2023/05/31 14:39:21;;;;;;;2.50;1.20;;;;;;;;;;5029660;28;20206;-63
2023/05/31 14:41:49;;;;;;;2.00;1.10;;;;;;;;;;5032121;28;20654;-63
2023/05/31 14:44:16;;;;;;;3.70;1.20;;;;;;;;;;5019227;28;20188;-62
2023/05/31 14:46:43;;;;;;;3.20;1.07;;;;;;;;;;5028768;28;20183;-63
2023/05/31 14:49:27;;;;;;;3.93;1.20;;;;;;;;;;5030351;28;20183;-63
2023/05/31 14:51:55;;;;;;;5.60;1.43;;;;;;;;;;5030679;28;20221;-63
2023/05/31 14:54:40;;;;;;;3.50;1.10;;;;;;;;;;5029318;28;20187;-66
2023/05/31 14:57:07;;;;;;;3.80;1.03;;;;;;;;;;5028216;28;20626;-64
2023/05/31 14:59:35;;;;;;;3.40;1.10;;;;;;;;;;5028183;28;20223;-63
2023/05/31 15:02:02;;;;;;;5.83;1.50;;;;;;;;;;5027334;28;20226;-63
2023/05/31 15:04:29;;;;;;;6.97;1.43;;;;;;;;;;5027067;28;20551;-63
2023/05/31 15:06:56;;;;;;;3.23;1.10;;;;;;;;;;5018191;28;20196;-63
2023/05/31 15:09:23;;;;;;;9.27;1.93;;;;;;;;;;5023170;28;20249;-63
2023/05/31 15:11:50;;;;;;;3.63;2.00;;;;;;;;;;5014288;28;20192;-62
2023/05/31 15:14:17;;;;;;;4.50;1.90;;;;;;;;;;5023876;28;20231;-63
2023/05/31 15:16:44;;;;;;;2.30;1.20;;;;;;;;;;5025123;28;20671;-63
2023/05/31 15:19:11;;;;;;;3.70;1.37;;;;;;;;;;5013652;28;20290;-63
2023/05/31 15:21:38;;;;;;;3.07;1.30;;;;;;;;;;5021128;28;20187;-62
2023/05/31 15:24:05;;;;;;;4.33;1.90;;;;;;;;;;5012580;28;20200;-63
2023/05/31 15:26:32;;;;;;;4.23;1.70;;;;;;;;;;5019999;28;20196;-63
2023/05/31 15:29:17;;;;;;;4.77;1.40;;;;;;;;;;5027958;28;20252;-63
2023/05/31 15:31:44;;;;;;;6.20;1.80;;;;;;;;;;5023067;28;20179;-63
2023/05/31 15:34:12;;;;;;;7.17;1.40;;;;;;;;;;5007866;28;20207;-63
2023/05/31 15:36:39;;;;;;;4.90;1.30;;;;;;;;;;4997940;28;20223;-63